Time;durP1;ratioP1;P1;durP2;ratioP2;P2;SDS_P1;SDS_P2;PMS_P1;PMS_P2;Temp;Humidity;BMP_temperature;BMP_pressure;BME280_temperature;BME280_humidity;BME280_pressure;Samples;Min_cycle;Max_cycle;Signal;HPM_P1;HPM_P2
2022/09/25 00:01:16;;;;;;;0.00;0.00;;;14.60;99.90;;;;;;5018301;28;20450;-90
2022/09/25 00:03:44;;;;;;;0.00;0.00;;;14.60;99.90;;;;;;5017395;28;20442;-89
2022/09/25 00:06:14;;;;;;;0.00;0.00;;;14.60;99.90;;;;;;5018070;28;20442;-90
2022/09/25 00:08:43;;;;;;;0.00;0.00;;;14.60;99.90;;;;;;5017672;28;20435;-90
2022/09/25 00:11:13;;;;;;;0.00;0.00;;;14.60;99.90;;;;;;5017591;28;20469;-90
2022/09/25 00:13:42;;;;;;;0.00;0.00;;;14.60;99.90;;;;;;5025749;28;20473;-91
2022/09/25 00:16:11;;;;;;;0.00;0.00;;;14.60;99.90;;;;;;5038221;28;20457;-91
2022/09/25 00:21:29;;;;;;;0.00;0.00;;;14.70;99.90;;;;;;5019780;28;20469;-89
2022/09/25 00:23:59;;;;;;;0.00;0.00;;;14.70;99.90;;;;;;5018243;28;20551;-90
2022/09/25 00:26:28;;;;;;;0.00;0.00;;;14.60;99.90;;;;;;5020788;28;20476;-90
2022/09/25 00:28:57;;;;;;;0.00;0.00;;;14.70;99.90;;;;;;5035031;28;20434;-90
2022/09/25 00:31:26;;;;;;;0.00;0.00;;;14.70;99.90;;;;;;5034915;28;20481;-89
2022/09/25 00:33:58;;;;;;;0.00;0.00;;;14.70;99.90;;;;;;5017457;28;20446;-90
2022/09/25 00:36:26;;;;;;;0.00;0.00;;;14.70;99.90;;;;;;5016150;28;20449;-90
2022/09/25 00:38:54;;;;;;;0.00;0.00;;;14.70;99.90;;;;;;5015628;28;20462;-90
2022/09/25 00:41:24;;;;;;;0.00;0.00;;;14.60;99.90;;;;;;5016309;28;20462;-90
2022/09/25 00:43:55;;;;;;;0.00;0.00;;;14.60;99.90;;;;;;5016046;28;20434;-90
2022/09/25 00:46:27;;;;;;;0.00;0.00;;;14.60;99.90;;;;;;5016291;28;20473;-90
2022/09/25 00:49:00;;;;;;;0.00;0.00;;;14.60;99.90;;;;;;5016992;28;20446;-90
2022/09/25 00:51:35;;;;;;;0.00;0.00;;;14.50;99.90;;;;;;5015045;28;20473;-89
2022/09/25 00:54:05;;;;;;;0.00;0.00;;;14.50;99.90;;;;;;5015880;28;20456;-90
2022/09/25 00:56:39;;;;;;;0.00;0.00;;;14.50;99.90;;;;;;5015858;28;20454;-90
2022/09/25 00:59:11;;;;;;;0.00;0.00;;;14.50;99.90;;;;;;5016105;28;20423;-89
2022/09/25 01:01:39;;;;;;;0.00;0.00;;;14.50;99.90;;;;;;5017720;28;20462;-89
2022/09/25 01:04:12;;;;;;;0.00;0.00;;;14.50;99.90;;;;;;5016578;28;20926;-89
2022/09/25 01:06:40;;;;;;;0.00;0.00;;;14.50;99.90;;;;;;5016469;28;20980;-90
2022/09/25 01:09:08;;;;;;;0.00;0.00;;;14.50;99.90;;;;;;5017158;28;20476;-89
2022/09/25 01:11:36;;;;;;;0.00;0.00;;;14.50;99.90;;;;;;5019141;28;20524;-89
2022/09/25 01:14:07;;;;;;;0.00;0.00;;;14.50;99.90;;;;;;5020345;28;20438;-89
2022/09/25 01:16:42;;;;;;;0.00;0.00;;;14.40;99.90;;;;;;5022036;28;20446;-89
2022/09/25 01:19:24;;;;;;;0.00;0.00;;;14.40;99.90;;;;;;5019924;28;20788;-90
2022/09/25 01:21:55;;;;;;;0.00;0.00;;;14.40;99.90;;;;;;5019092;28;20473;-90
2022/09/25 01:24:43;;;;;;;0.00;0.00;;;14.30;99.90;;;;;;5018578;28;20457;-90
2022/09/25 01:27:27;;;;;;;0.00;0.00;;;14.30;99.90;;;;;;5020803;28;20423;-89
2022/09/25 01:30:05;;;;;;;0.00;0.00;;;14.30;99.90;;;;;;5019354;28;20469;-90
2022/09/25 01:32:40;;;;;;;0.00;0.00;;;14.30;99.90;;;;;;5025321;28;20446;-90
2022/09/25 01:35:16;;;;;;;0.00;0.00;;;14.40;99.90;;;;;;5032536;28;20509;-90
2022/09/25 01:37:51;;;;;;;0.00;0.00;;;14.40;99.90;;;;;;5018722;28;20913;-90
2022/09/25 01:40:26;;;;;;;0.00;0.00;;;14.40;99.90;;;;;;5018359;28;20497;-90
2022/09/25 01:43:05;;;;;;;0.00;0.00;;;14.40;99.90;;;;;;5019775;28;20442;-92
2022/09/25 01:45:40;;;;;;;0.00;0.00;;;14.40;99.90;;;;;;5017928;28;20901;-90
2022/09/25 01:48:10;;;;;;;0.00;0.00;;;14.40;99.90;;;;;;5018834;28;20499;-92
2022/09/25 01:50:44;;;;;;;0.00;0.00;;;14.40;99.90;;;;;;5019025;28;20470;-90
2022/09/25 01:53:16;;;;;;;0.00;0.00;;;14.40;99.90;;;;;;5020621;28;20482;-88
2022/09/25 01:55:47;;;;;;;0.00;0.00;;;14.40;99.90;;;;;;5022344;28;20453;-89
2022/09/25 01:58:20;;;;;;;0.00;0.00;;;14.40;99.90;;;;;;5022599;28;20445;-89
2022/09/25 02:00:54;;;;;;;0.00;0.00;;;14.40;99.90;;;;;;5022422;28;20458;-89
2022/09/25 02:03:29;;;;;;;0.00;0.00;;;14.40;99.90;;;;;;5022182;28;20418;-89
2022/09/25 02:06:01;;;;;;;0.00;0.00;;;14.30;99.90;;;;;;5021714;28;20434;-89
2022/09/25 02:08:33;;;;;;;0.00;0.00;;;14.30;99.90;;;;;;5033092;28;20437;-89
2022/09/25 02:11:05;;;;;;;0.00;0.00;;;14.30;99.90;;;;;;5039795;28;20470;-90
2022/09/25 02:13:38;;;;;;;0.00;0.00;;;14.30;99.90;;;;;;5039526;28;20472;-88
2022/09/25 02:22:18;;;;;;;0.00;0.00;;;14.30;99.90;;;;;;5017488;28;20454;-89
2022/09/25 02:24:49;;;;;;;0.00;0.00;;;14.30;99.90;;;;;;5019256;28;20414;-88
2022/09/25 02:27:26;;;;;;;0.00;0.00;;;14.30;99.90;;;;;;5020982;28;20528;-87
2022/09/25 02:29:57;;;;;;;0.00;0.00;;;14.30;99.90;;;;;;5020523;28;20423;-87
2022/09/25 02:32:29;;;;;;;0.00;0.00;;;14.30;99.90;;;;;;5020128;28;20470;-87
2022/09/25 02:34:58;;;;;;;0.00;0.00;;;14.40;99.90;;;;;;5019968;28;20504;-88
2022/09/25 02:37:28;;;;;;;0.00;0.00;;;14.40;99.90;;;;;;5019391;28;20461;-88
2022/09/25 02:39:59;;;;;;;0.00;0.00;;;14.40;99.90;;;;;;5019485;28;20925;-88
2022/09/25 02:42:35;;;;;;;0.00;0.00;;;14.40;99.90;;;;;;5020080;28;20447;-88
2022/09/25 02:45:12;;;;;;;0.00;0.00;;;14.40;99.90;;;;;;5020231;28;20446;-88
2022/09/25 02:47:47;;;;;;;0.00;0.00;;;14.40;99.90;;;;;;5020273;28;20460;-89
2022/09/25 02:50:22;;;;;;;0.00;0.00;;;14.40;99.90;;;;;;5021010;28;20470;-88
2022/09/25 02:52:58;;;;;;;0.00;0.00;;;14.40;99.90;;;;;;5020415;28;20485;-88
2022/09/25 02:55:34;;;;;;;0.00;0.00;;;14.40;99.90;;;;;;5019489;28;21030;-88
2022/09/25 02:58:08;;;;;;;0.00;0.00;;;14.40;99.90;;;;;;5019500;28;20422;-88
2022/09/25 03:00:38;;;;;;;0.00;0.00;;;14.40;99.90;;;;;;5019904;28;20458;-88
2022/09/25 03:03:10;;;;;;;0.00;0.00;;;14.40;99.90;;;;;;5019446;28;20936;-88
2022/09/25 03:05:38;;;;;;;0.00;0.00;;;14.40;99.90;;;;;;5018730;28;20450;-88
2022/09/25 03:10:53;;;;;;;0.00;0.00;;;14.40;99.90;;;;;;5017483;28;20458;-89
2022/09/25 03:13:25;;;;;;;0.00;0.00;;;14.40;99.90;;;;;;5019845;28;21018;-88
2022/09/25 03:15:57;;;;;;;0.00;0.00;;;14.40;99.90;;;;;;5017728;28;20950;-88
2022/09/25 03:18:27;;;;;;;0.00;0.00;;;14.50;99.90;;;;;;5017889;28;20545;-87
2022/09/25 03:20:55;;;;;;;0.00;0.00;;;14.50;99.90;;;;;;5018203;28;20497;-88
2022/09/25 03:23:24;;;;;;;0.00;0.00;;;14.50;99.90;;;;;;5020196;28;20461;-88
2022/09/25 03:25:54;;;;;;;0.00;0.00;;;14.50;99.90;;;;;;5016737;28;20435;-88
2022/09/25 03:28:22;;;;;;;0.00;0.00;;;14.50;99.90;;;;;;5030721;28;20442;-88
2022/09/25 03:30:58;;;;;;;0.00;0.00;;;14.50;99.90;;;;;;5038291;28;20453;-88
2022/09/25 03:33:27;;;;;;;0.00;0.00;;;14.50;99.90;;;;;;5037799;28;20530;-88
2022/09/25 03:36:07;;;;;;;0.00;0.00;;;14.50;99.90;;;;;;5036484;28;20422;-88
2022/09/25 03:38:37;;;;;;;0.00;0.00;;;14.50;99.90;;;;;;5016162;28;20933;-89
2022/09/25 03:41:07;;;;;;;0.00;0.00;;;14.40;99.90;;;;;;5009036;28;20494;-89
2022/09/25 03:43:36;;;;;;;0.00;0.00;;;14.40;99.90;;;;;;4999036;28;20443;-89
2022/09/25 03:46:04;;;;;;;0.00;0.00;;;14.40;99.90;;;;;;4994849;28;20478;-88
2022/09/25 03:48:34;;;;;;;0.00;0.00;;;14.40;99.90;;;;;;4994014;28;20446;-89
2022/09/25 03:51:03;;;;;;;0.00;0.00;;;14.50;99.90;;;;;;4994258;28;20458;-89
2022/09/25 03:53:32;;;;;;;0.00;0.00;;;14.50;99.90;;;;;;4993531;28;20569;-90
2022/09/25 03:56:02;;;;;;;0.00;0.00;;;14.40;99.90;;;;;;4996037;28;20447;-89
2022/09/25 03:58:30;;;;;;;0.00;0.00;;;14.50;99.90;;;;;;4995744;28;20971;-89
2022/09/25 04:00:58;;;;;;;0.00;0.00;;;14.50;99.90;;;;;;4995576;28;20479;-89
2022/09/25 04:03:27;;;;;;;0.00;0.00;;;14.50;99.90;;;;;;4995892;28;20484;-88
2022/09/25 04:05:56;;;;;;;0.00;0.00;;;14.40;99.90;;;;;;4995981;28;20443;-89
2022/09/25 04:08:25;;;;;;;0.00;0.00;;;14.50;99.90;;;;;;4995480;28;20454;-89
2022/09/25 04:10:55;;;;;;;0.00;0.00;;;14.50;99.90;;;;;;4995604;28;20459;-88
2022/09/25 04:13:24;;;;;;;0.00;0.00;;;14.50;99.90;;;;;;4995715;28;20463;-88
2022/09/25 04:15:52;;;;;;;0.00;0.00;;;14.50;99.90;;;;;;4998661;28;20833;-89
2022/09/25 04:18:20;;;;;;;0.00;0.00;;;14.50;99.90;;;;;;4995175;28;20889;-90
2022/09/25 04:20:48;;;;;;;0.00;0.00;;;14.50;99.90;;;;;;4994929;28;20973;-89
2022/09/25 04:23:16;;;;;;;0.00;0.00;;;14.40;99.90;;;;;;4995949;28;20509;-89
2022/09/25 04:25:44;;;;;;;0.00;0.00;;;14.40;99.90;;;;;;4995294;28;20936;-89
2022/09/25 04:28:12;;;;;;;0.00;0.00;;;14.40;99.90;;;;;;5009674;28;20446;-89
2022/09/25 04:30:41;;;;;;;0.00;0.00;;;14.40;99.90;;;;;;5032996;28;20857;-89
2022/09/25 04:35:55;;;;;;;0.00;0.00;;;14.30;99.90;;;;;;5038857;28;20495;-88
2022/09/25 04:38:23;;;;;;;0.00;0.00;;;14.30;99.90;;;;;;5036701;28;20433;-88
2022/09/25 04:40:51;;;;;;;0.00;0.00;;;14.20;99.90;;;;;;5036034;28;20512;-89
2022/09/25 04:43:19;;;;;;;0.00;0.00;;;14.20;99.90;;;;;;5036328;28;20946;-88
2022/09/25 04:45:49;;;;;;;0.00;0.00;;;14.20;99.90;;;;;;5042053;28;20501;-88
2022/09/25 04:48:17;;;;;;;0.00;0.00;;;14.20;99.90;;;;;;5040644;28;20939;-88
2022/09/25 04:50:50;;;;;;;0.00;0.00;;;14.30;99.90;;;;;;5039317;28;20546;-89
2022/09/25 04:53:18;;;;;;;0.00;0.00;;;14.30;99.90;;;;;;5024118;28;21198;-89
2022/09/25 04:55:46;;;;;;;0.00;0.00;;;14.30;99.90;;;;;;5018602;28;20508;-89
2022/09/25 04:58:14;;;;;;;0.00;0.00;;;14.30;99.90;;;;;;5019025;28;20944;-88
2022/09/25 05:00:42;;;;;;;0.00;0.00;;;14.30;99.90;;;;;;5020661;28;20474;-89
2022/09/25 05:03:11;;;;;;;0.00;0.00;;;14.30;99.90;;;;;;5018900;28;20464;-88
2022/09/25 05:05:39;;;;;;;0.00;0.00;;;14.30;99.90;;;;;;5019167;28;20879;-88
2022/09/25 05:08:07;;;;;;;0.00;0.00;;;14.30;99.90;;;;;;5019685;28;20457;-88
2022/09/25 05:10:38;;;;;;;0.00;0.00;;;14.30;99.90;;;;;;5018819;28;20485;-88
2022/09/25 05:13:08;;;;;;;0.00;0.00;;;14.30;99.90;;;;;;5018655;28;20418;-89
2022/09/25 05:15:36;;;;;;;0.00;0.00;;;14.30;99.90;;;;;;5017636;28;20477;-91
2022/09/25 05:18:05;;;;;;;0.00;0.00;;;14.30;99.90;;;;;;5019481;28;20933;-90
2022/09/25 05:20:36;;;;;;;0.00;0.00;;;14.40;99.90;;;;;;5018438;28;20469;-90
2022/09/25 05:23:04;;;;;;;0.00;0.00;;;14.40;99.90;;;;;;5017391;28;20790;-90
2022/09/25 05:25:32;;;;;;;0.00;0.00;;;14.40;99.90;;;;;;5016888;28;20501;-90
2022/09/25 05:28:01;;;;;;;0.00;0.00;;;14.40;99.90;;;;;;5017414;28;20462;-90
2022/09/25 05:30:31;;;;;;;0.00;0.00;;;14.40;99.90;;;;;;5017359;28;20470;-91
2022/09/25 05:32:59;;;;;;;0.00;0.00;;;14.40;99.90;;;;;;5017861;28;20446;-91
2022/09/25 05:35:30;;;;;;;0.00;0.00;;;14.40;99.90;;;;;;5017286;28;20560;-91
2022/09/25 05:37:59;;;;;;;0.00;0.00;;;14.40;99.90;;;;;;5018420;28;20521;-91
2022/09/25 05:40:27;;;;;;;0.00;0.00;;;14.40;99.90;;;;;;5017907;28;20474;-91
2022/09/25 05:43:41;;;;;;;0.00;0.00;;;14.40;99.90;;;;;;5019214;28;20934;-88
2022/09/25 05:46:13;;;;;;;0.00;0.00;;;14.40;99.90;;;;;;4909949;28;20573;-89
2022/09/25 05:48:42;;;;;;;0.00;0.00;;;14.50;99.90;;;;;;5017642;28;20454;-89
2022/09/25 05:51:41;;;;;;;0.00;0.00;;;14.50;99.90;;;;;;5017732;28;20545;-89
2022/09/25 05:54:17;;;;;;;0.00;0.00;;;14.50;99.90;;;;;;5017622;28;20497;-90
2022/09/25 05:56:45;;;;;;;0.00;0.00;;;14.50;99.90;;;;;;5017677;28;20446;-89
2022/09/25 05:59:42;;;;;;;0.00;0.00;;;14.50;99.90;;;;;;5019242;28;20454;-89
2022/09/25 06:02:14;;;;;;;0.00;0.00;;;14.50;99.90;;;;;;5018355;28;20469;-89
2022/09/25 06:04:50;;;;;;;0.00;0.00;;;14.50;99.90;;;;;;5019700;28;20450;-89
2022/09/25 06:07:24;;;;;;;0.00;0.00;;;14.60;99.90;;;;;;5018687;28;20560;-89
2022/09/25 06:10:22;;;;;;;0.00;0.00;;;14.60;99.90;;;;;;5016493;28;20493;-90
2022/09/25 06:12:50;;;;;;;0.00;0.00;;;14.60;99.90;;;;;;5017510;28;20868;-89
2022/09/25 06:15:18;;;;;;;0.00;0.00;;;14.60;99.90;;;;;;5017761;28;20484;-90
2022/09/25 06:17:47;;;;;;;0.00;0.00;;;14.60;99.90;;;;;;5017417;28;20505;-89
2022/09/25 06:20:37;;;;;;;0.00;0.00;;;14.70;99.90;;;;;;4998496;28;20533;-90
2022/09/25 06:23:39;;;;;;;0.00;0.00;;;14.70;99.90;;;;;;4967222;28;20462;-90
2022/09/25 06:26:09;;;;;;;0.00;0.00;;;14.70;99.90;;;;;;5004990;28;20450;-92
2022/09/25 06:28:42;;;;;;;0.00;0.00;;;14.70;99.90;;;;;;5008992;28;20438;-91
2022/09/25 06:31:10;;;;;;;0.00;0.00;;;14.70;99.90;;;;;;4998055;28;20601;-89
2022/09/25 06:33:38;;;;;;;0.00;0.00;;;14.80;99.90;;;;;;4997365;28;20447;-89
2022/09/25 06:36:07;;;;;;;0.00;0.00;;;14.80;99.90;;;;;;5020804;28;20472;-90
2022/09/25 06:38:53;;;;;;;0.00;0.00;;;14.80;99.90;;;;;;5034880;28;20971;-89
2022/09/25 06:41:23;;;;;;;0.00;0.00;;;14.80;99.90;;;;;;5037092;28;20473;-90
2022/09/25 06:43:51;;;;;;;0.00;0.00;;;14.80;99.90;;;;;;5037537;28;20449;-90
2022/09/25 06:46:20;;;;;;;0.00;0.00;;;14.80;99.90;;;;;;5037092;28;20785;-90
2022/09/25 06:48:54;;;;;;;0.00;0.00;;;14.70;99.90;;;;;;5036811;28;20568;-90
2022/09/25 06:51:23;;;;;;;0.00;0.00;;;14.80;99.90;;;;;;5038184;28;20486;-90
2022/09/25 06:53:55;;;;;;;0.00;0.00;;;14.80;99.90;;;;;;5037590;28;20575;-90
2022/09/25 06:56:28;;;;;;;0.00;0.00;;;14.80;99.90;;;;;;5037579;28;20479;-89
2022/09/25 06:59:13;;;;;;;;;;;;;;;;;;;;;
2022/09/25 07:01:41;;;;;;;0.00;0.00;;;14.90;99.90;;;;;;5021665;28;20536;-90
2022/09/25 07:04:13;;;;;;;0.00;0.00;;;14.90;99.90;;;;;;5037834;28;20547;-90
2022/09/25 07:06:42;;;;;;;0.00;0.00;;;14.90;99.90;;;;;;5036291;28;20452;-90
2022/09/25 07:09:10;;;;;;;0.00;0.00;;;14.90;99.90;;;;;;5036917;28;20461;-90
2022/09/25 07:11:47;;;;;;;0.00;0.00;;;15.00;99.90;;;;;;5037875;28;20469;-88
2022/09/25 07:14:15;;;;;;;0.00;0.00;;;15.00;99.90;;;;;;5036583;28;20773;-91
2022/09/25 07:16:43;;;;;;;0.00;0.00;;;15.00;99.90;;;;;;5035987;28;20488;-90
2022/09/25 07:19:22;;;;;;;0.00;0.00;;;15.00;99.90;;;;;;5037225;28;20446;-89
2022/09/25 07:21:54;;;;;;;0.00;0.00;;;15.10;99.90;;;;;;5037932;28;20488;-88
2022/09/25 07:24:49;;;;;;;0.00;0.00;;;15.10;99.90;;;;;;5040271;28;20476;-91
2022/09/25 07:31:10;;;;;;;0.00;0.00;;;15.00;99.90;;;;;;4972334;22;20496;-67
2022/09/25 07:33:38;;;;;;;0.00;0.00;;;14.80;99.90;;;;;;5033058;28;20498;-67
2022/09/25 07:36:07;;;;;;;0.00;0.00;;;14.80;99.90;;;;;;5031257;28;20473;-67
2022/09/25 07:38:35;;;;;;;0.00;0.00;;;14.80;99.90;;;;;;5040670;28;20498;-67
2022/09/25 07:41:05;;;;;;;0.00;0.00;;;14.80;99.90;;;;;;5028197;28;20457;-67
2022/09/25 07:43:33;;;;;;;0.00;0.00;;;14.80;99.90;;;;;;5032662;28;20468;-67
2022/09/25 07:46:02;;;;;;;0.00;0.00;;;14.80;99.90;;;;;;5019876;28;20449;-68
2022/09/25 07:48:30;;;;;;;0.00;0.00;;;14.80;99.90;;;;;;5012893;28;20442;-73
2022/09/25 07:51:00;;;;;;;0.00;0.00;;;14.80;99.90;;;;;;5013258;28;20893;-70
2022/09/25 07:53:28;;;;;;;0.00;0.00;;;14.80;99.90;;;;;;5029841;28;20487;-68
2022/09/25 07:55:57;;;;;;;0.00;0.00;;;14.80;99.90;;;;;;5027987;28;20481;-68
2022/09/25 07:58:33;;;;;;;0.00;0.00;;;14.80;99.90;;;;;;5017223;28;20445;-69
2022/09/25 08:01:05;;;;;;;0.00;0.00;;;14.80;99.90;;;;;;5013160;28;20540;-69
2022/09/25 08:03:32;;;;;;;0.00;0.00;;;14.80;99.90;;;;;;4993027;28;20905;-70
2022/09/25 08:06:02;;;;;;;0.00;0.00;;;14.80;99.90;;;;;;4993517;28;20502;-70
2022/09/25 08:08:30;;;;;;;0.00;0.00;;;14.80;99.90;;;;;;4993210;28;20449;-72
2022/09/25 08:11:01;;;;;;;0.00;0.00;;;14.70;99.90;;;;;;4993018;28;20533;-70
2022/09/25 08:13:29;;;;;;;0.00;0.00;;;14.70;99.90;;;;;;4994235;28;20427;-69
2022/09/25 08:15:56;;;;;;;0.00;0.00;;;14.50;99.90;;;;;;4993010;28;20978;-69
2022/09/25 08:18:26;;;;;;;0.00;0.00;;;14.40;99.90;;;;;;4994731;28;20479;-69
2022/09/25 08:20:53;;;;;;;0.00;0.00;;;14.30;99.90;;;;;;4997129;28;20501;-69
2022/09/25 08:23:21;;;;;;;0.00;0.00;;;14.30;99.90;;;;;;4997299;28;20868;-70
2022/09/25 08:25:49;;;;;;;0.00;0.00;;;14.20;99.90;;;;;;4997235;28;20438;-69
2022/09/25 08:28:17;;;;;;;0.00;0.00;;;14.20;99.90;;;;;;4996915;28;20492;-70
2022/09/25 08:30:46;;;;;;;0.00;0.00;;;14.20;99.90;;;;;;5010224;28;20473;-70
2022/09/25 08:33:13;;;;;;;0.00;0.00;;;14.20;99.90;;;;;;5016419;28;20430;-70
2022/09/25 08:35:44;;;;;;;0.00;0.00;;;14.20;99.90;;;;;;5027808;28;20480;-70
2022/09/25 08:38:12;;;;;;;0.00;0.00;;;14.20;99.90;;;;;;5027190;28;20512;-69
2022/09/25 08:40:51;;;;;;;0.00;0.00;;;14.20;99.90;;;;;;5021579;28;20875;-69
2022/09/25 08:43:23;;;;;;;0.00;0.00;;;14.10;99.90;;;;;;5033775;28;20440;-69
2022/09/25 08:49:01;;;;;;;0.00;0.00;;;14.00;99.90;;;;;;5025795;28;20484;-69
2022/09/25 08:51:33;;;;;;;0.00;0.00;;;14.00;99.90;;;;;;5032180;28;20444;-70
2022/09/25 08:54:03;;;;;;;0.00;0.00;;;14.00;99.90;;;;;;5029901;28;20522;-72
2022/09/25 08:56:34;;;;;;;0.00;0.00;;;13.90;99.90;;;;;;5024566;28;20481;-72
2022/09/25 08:59:07;;;;;;;0.00;0.00;;;13.90;99.90;;;;;;5017856;28;20449;-72
2022/09/25 09:01:43;;;;;;;0.00;0.00;;;13.90;99.90;;;;;;5035735;28;20449;-71
2022/09/25 09:04:19;;;;;;;0.00;0.00;;;13.90;99.90;;;;;;5021566;28;20484;-71
2022/09/25 09:06:53;;;;;;;0.00;0.00;;;13.90;99.90;;;;;;5025269;28;20994;-72
2022/09/25 09:09:44;;;;;;;0.00;0.00;;;13.90;99.90;;;;;;5022152;28;20485;-70
2022/09/25 09:12:14;;;;;;;0.00;0.00;;;13.90;99.90;;;;;;5022837;28;20454;-72
2022/09/25 09:14:46;;;;;;;0.00;0.00;;;14.00;99.90;;;;;;5035202;28;20861;-71
2022/09/25 09:17:17;;;;;;;0.00;0.00;;;13.90;99.90;;;;;;5022020;28;20881;-71
2022/09/25 09:19:48;;;;;;;0.00;0.00;;;14.00;99.90;;;;;;5021218;28;20870;-71
2022/09/25 09:22:24;;;;;;;0.00;0.00;;;13.90;99.90;;;;;;5027001;28;21139;-71
2022/09/25 09:25:02;;;;;;;0.00;0.00;;;13.90;99.90;;;;;;5029750;28;20457;-70
2022/09/25 09:27:42;;;;;;;0.00;0.00;;;13.90;99.90;;;;;;5018800;28;20519;-72
2022/09/25 09:30:14;;;;;;;0.00;0.00;;;13.90;99.90;;;;;;5021271;28;21034;-69
2022/09/25 09:33:17;;;;;;;0.00;0.00;;;13.80;99.90;;;;;;5027545;28;20523;-70
2022/09/25 09:35:53;;;;;;;0.00;0.00;;;13.80;99.90;;;;;;4996058;28;20449;-71
2022/09/25 09:38:30;;;;;;;0.00;0.00;;;13.80;99.90;;;;;;5020710;28;20461;-70
2022/09/25 09:41:17;;;;;;;0.00;0.00;;;13.80;99.90;;;;;;5028207;28;20453;-67
2022/09/25 09:43:54;;;;;;;0.00;0.00;;;13.80;99.90;;;;;;5021026;28;20448;-67
2022/09/25 09:46:32;;;;;;;0.00;0.00;;;13.80;99.90;;;;;;5026373;28;20456;-71
2022/09/25 09:49:09;;;;;;;0.00;0.00;;;13.80;99.90;;;;;;5027524;28;20460;-68
2022/09/25 09:51:43;;;;;;;0.00;0.00;;;13.90;99.90;;;;;;5021201;28;20450;-68
2022/09/25 09:54:16;;;;;;;0.00;0.00;;;13.90;99.90;;;;;;5034855;28;20432;-68
2022/09/25 09:56:48;;;;;;;0.00;0.00;;;13.80;99.90;;;;;;5016900;28;20481;-69
2022/09/25 09:59:18;;;;;;;0.00;0.00;;;13.80;99.90;;;;;;5014915;28;20461;-69
2022/09/25 10:01:54;;;;;;;0.00;0.00;;;13.80;99.90;;;;;;5019650;28;20868;-69
2022/09/25 10:04:28;;;;;;;0.00;0.00;;;13.80;99.90;;;;;;5019063;28;20454;-69
2022/09/25 10:07:00;;;;;;;0.00;0.00;;;13.80;99.90;;;;;;5022509;28;20491;-69
2022/09/25 10:09:30;;;;;;;0.00;0.00;;;13.80;99.90;;;;;;5016455;28;20462;-69
2022/09/25 10:12:01;;;;;;;0.00;0.00;;;13.80;99.90;;;;;;5020553;28;20445;-69
2022/09/25 10:14:35;;;;;;;0.00;0.00;;;13.90;99.90;;;;;;5034767;28;20428;-69
2022/09/25 10:17:05;;;;;;;0.00;0.00;;;13.80;99.90;;;;;;5031371;28;20998;-69
2022/09/25 10:19:43;;;;;;;0.00;0.00;;;13.80;99.90;;;;;;5018894;28;20469;-69
2022/09/25 10:22:15;;;;;;;0.00;0.00;;;13.80;99.90;;;;;;5021158;28;20500;-69
2022/09/25 10:24:54;;;;;;;0.00;0.00;;;13.80;99.90;;;;;;5024129;28;20507;-71
2022/09/25 10:27:31;;;;;;;0.00;0.00;;;13.90;99.90;;;;;;5017854;28;20445;-69
2022/09/25 10:30:19;;;;;;;0.00;0.00;;;13.90;99.90;;;;;;5022541;28;20957;-69
2022/09/25 10:32:55;;;;;;;0.00;0.00;;;13.90;99.90;;;;;;5016430;28;20467;-69
2022/09/25 10:35:27;;;;;;;0.00;0.00;;;13.90;99.90;;;;;;5017796;28;21013;-69
2022/09/25 10:37:58;;;;;;;0.00;0.00;;;14.00;99.90;;;;;;5026466;28;20477;-69
2022/09/25 10:40:31;;;;;;;0.00;0.00;;;14.00;99.90;;;;;;5022468;28;20489;-69
2022/09/25 10:43:15;;;;;;;0.00;0.00;;;14.00;99.90;;;;;;5020052;28;20909;-69
2022/09/25 10:45:44;;;;;;;0.00;0.00;;;14.10;99.90;;;;;;5018565;28;20961;-69
2022/09/25 10:51:17;;;;;;;0.00;0.00;;;14.00;99.90;;;;;;5019141;28;20480;-69
2022/09/25 10:53:46;;;;;;;0.00;0.00;;;14.10;99.90;;;;;;5030061;28;20477;-69
2022/09/25 10:56:19;;;;;;;0.00;0.00;;;14.10;99.90;;;;;;5024911;28;20441;-69
2022/09/25 10:58:52;;;;;;;0.00;0.00;;;14.10;99.90;;;;;;5032796;28;20671;-69
2022/09/25 11:01:21;;;;;;;0.00;0.00;;;14.20;99.90;;;;;;5033722;28;20507;-69
2022/09/25 11:03:52;;;;;;;0.00;0.00;;;14.20;99.90;;;;;;5033519;28;20920;-69
2022/09/25 11:06:26;;;;;;;0.00;0.00;;;14.20;99.90;;;;;;5033282;28;21012;-69
2022/09/25 11:09:07;;;;;;;0.00;0.00;;;14.10;99.90;;;;;;5033023;28;20433;-69
2022/09/25 11:11:39;;;;;;;0.00;0.00;;;14.10;99.90;;;;;;5033489;28;20437;-69
2022/09/25 11:14:19;;;;;;;0.00;0.00;;;14.00;99.90;;;;;;5032257;28;20854;-69
2022/09/25 11:16:51;;;;;;;0.00;0.00;;;14.00;99.90;;;;;;5024409;28;20506;-69
2022/09/25 11:19:24;;;;;;;0.00;0.00;;;14.00;99.90;;;;;;5025111;28;20898;-69
2022/09/25 11:22:03;;;;;;;0.00;0.00;;;14.00;99.90;;;;;;5028784;28;20445;-69
2022/09/25 11:24:45;;;;;;;0.00;0.00;;;13.90;99.90;;;;;;5028640;28;20955;-69
2022/09/25 11:27:19;;;;;;;0.00;0.00;;;14.00;99.90;;;;;;5022810;28;20434;-69
2022/09/25 11:29:57;;;;;;;0.00;0.00;;;14.00;99.90;;;;;;5022885;28;21042;-69
2022/09/25 11:32:32;;;;;;;0.00;0.00;;;14.00;99.90;;;;;;5016654;28;20452;-69
2022/09/25 11:35:21;;;;;;;0.00;0.00;;;14.00;99.90;;;;;;5015651;28;20445;-69
2022/09/25 11:37:58;;;;;;;0.00;0.00;;;14.00;99.90;;;;;;5020239;28;20556;-68
2022/09/25 11:43:43;;;;;;;0.00;0.00;;;14.00;99.90;;;;;;5033028;28;20487;-69
2022/09/25 11:46:20;;;;;;;0.00;0.00;;;14.00;99.90;;;;;;5032949;28;20449;-70
2022/09/25 11:48:59;;;;;;;0.00;0.00;;;14.00;99.90;;;;;;5032506;28;20436;-68
2022/09/25 11:51:44;;;;;;;0.00;0.00;;;14.00;99.90;;;;;;5032817;28;20551;-68
2022/09/25 11:54:29;;;;;;;0.00;0.00;;;14.00;99.90;;;;;;5032415;28;20522;-68
2022/09/25 11:57:06;;;;;;;0.00;0.00;;;14.00;99.90;;;;;;5018182;28;20465;-68
2022/09/25 11:59:46;;;;;;;0.00;0.00;;;14.00;99.90;;;;;;5026208;28;20461;-68
2022/09/25 12:02:22;;;;;;;0.00;0.00;;;13.90;99.90;;;;;;5032751;28;20498;-71
2022/09/25 12:05:06;;;;;;;0.00;0.00;;;13.90;99.90;;;;;;5020517;28;20454;-70
2022/09/25 12:07:47;;;;;;;0.00;0.00;;;13.90;99.90;;;;;;5032556;28;20417;-70
2022/09/25 12:10:29;;;;;;;0.00;0.00;;;14.00;99.90;;;;;;5025238;28;20513;-70
2022/09/25 12:13:06;;;;;;;0.00;0.00;;;14.00;99.90;;;;;;5017833;28;20953;-70
2022/09/25 12:15:48;;;;;;;0.00;0.00;;;14.10;99.90;;;;;;5013461;28;20525;-69
2022/09/25 12:18:27;;;;;;;0.00;0.00;;;14.10;99.90;;;;;;5023451;28;20484;-70
2022/09/25 12:21:05;;;;;;;0.00;0.00;;;14.00;99.90;;;;;;5021627;28;20509;-69
2022/09/25 12:23:43;;;;;;;0.00;0.00;;;14.00;99.90;;;;;;5020166;28;20465;-69
2022/09/25 12:26:20;;;;;;;0.00;0.00;;;14.00;99.90;;;;;;5030500;28;21189;-70
2022/09/25 12:29:04;;;;;;;0.00;0.00;;;14.00;99.90;;;;;;5020002;28;20454;-70
2022/09/25 12:31:52;;;;;;;0.00;0.00;;;14.00;99.90;;;;;;5019251;28;20500;-70
2022/09/25 12:34:36;;;;;;;0.00;0.00;;;14.10;99.90;;;;;;5020761;28;21085;-71
2022/09/25 12:37:13;;;;;;;0.00;0.00;;;14.10;99.90;;;;;;5018473;28;20438;-71
2022/09/25 12:39:47;;;;;;;0.00;0.00;;;14.00;99.90;;;;;;5024553;28;20481;-70
2022/09/25 12:42:19;;;;;;;0.00;0.00;;;14.10;99.90;;;;;;5017589;28;20450;-70
2022/09/25 12:44:53;;;;;;;0.00;0.00;;;14.10;99.90;;;;;;5024082;28;20448;-70
2022/09/25 12:47:32;;;;;;;0.00;0.00;;;14.10;99.90;;;;;;5021723;28;20499;-70
2022/09/25 12:50:06;;;;;;;0.00;0.00;;;14.10;99.90;;;;;;5021210;28;20458;-70
2022/09/25 12:52:40;;;;;;;0.00;0.00;;;14.20;99.90;;;;;;5012756;28;20429;-70
2022/09/25 12:55:16;;;;;;;0.00;0.00;;;14.30;99.90;;;;;;5017821;28;20515;-70
2022/09/25 12:57:47;;;;;;;0.00;0.00;;;14.30;99.90;;;;;;5020912;28;20449;-70
2022/09/25 13:00:20;;;;;;;0.00;0.00;;;14.40;99.90;;;;;;5026457;28;20464;-70
2022/09/25 13:03:01;;;;;;;0.00;0.00;;;14.40;99.90;;;;;;5032323;28;20467;-70
2022/09/25 13:05:34;;;;;;;0.00;0.00;;;14.40;99.90;;;;;;5035062;28;20495;-70
2022/09/25 13:08:09;;;;;;;0.00;0.00;;;14.50;99.90;;;;;;5035562;28;20851;-71
2022/09/25 13:10:41;;;;;;;0.00;0.00;;;14.50;99.90;;;;;;5039661;28;20830;-71
2022/09/25 13:13:11;;;;;;;0.00;0.00;;;14.70;99.90;;;;;;5036283;28;20444;-70
2022/09/25 13:15:42;;;;;;;0.00;0.00;;;14.80;99.90;;;;;;5027095;28;20470;-71
2022/09/25 13:18:17;;;;;;;0.00;0.00;;;14.90;99.90;;;;;;5032369;28;20480;-71
2022/09/25 13:20:49;;;;;;;0.00;0.00;;;15.00;99.90;;;;;;5015404;28;20519;-73
2022/09/25 13:23:30;;;;;;;0.00;0.00;;;15.00;99.90;;;;;;5015626;28;20442;-69
2022/09/25 13:26:01;;;;;;;0.00;0.00;;;15.10;99.90;;;;;;5017535;28;20461;-69
2022/09/25 13:28:32;;;;;;;0.00;0.00;;;15.20;99.90;;;;;;5021341;28;20514;-69
2022/09/25 13:31:06;;;;;;;0.00;0.00;;;15.20;99.90;;;;;;5026916;28;20481;-66
2022/09/25 13:33:46;;;;;;;0.00;0.00;;;15.20;99.90;;;;;;5026966;28;20511;-66
2022/09/25 13:36:30;;;;;;;0.00;0.00;;;15.20;99.90;;;;;;5027628;28;20473;-67
2022/09/25 13:41:57;;;;;;;0.00;0.00;;;15.10;99.90;;;;;;5021967;28;20449;-67
2022/09/25 13:44:48;;;;;;;0.00;0.00;;;15.00;99.90;;;;;;5033888;28;20518;-67
2022/09/25 13:47:53;;;;;;;0.00;0.00;;;15.10;99.90;;;;;;5006870;28;20464;-70
2022/09/25 13:50:36;;;;;;;0.00;0.00;;;15.00;99.90;;;;;;5027005;28;20464;-69